sensor_id;sensor_type;location;lat;lon;timestamp;temperature;humidity
31765;DHT22;18338;53.240;8.798;2023-11-21T00:01:06;9.90;99.90
31765;DHT22;18338;53.240;8.798;2023-11-21T00:03:35;9.90;99.90
31765;DHT22;18338;53.240;8.798;2023-11-21T00:06:03;9.90;99.90
31765;DHT22;18338;53.240;8.798;2023-11-21T00:08:30;9.90;99.90
31765;DHT22;18338;53.240;8.798;2023-11-21T00:10:56;9.90;99.90
31765;DHT22;18338;53.240;8.798;2023-11-21T00:13:23;9.90;99.90
31765;DHT22;18338;53.240;8.798;2023-11-21T00:15:50;9.90;99.90
31765;DHT22;18338;53.240;8.798;2023-11-21T00:18:17;10.00;99.90
31765;DHT22;18338;53.240;8.798;2023-11-21T00:20:44;10.00;99.90
31765;DHT22;18338;53.240;8.798;2023-11-21T00:23:11;10.00;99.90
31765;DHT22;18338;53.240;8.798;2023-11-21T00:25:38;10.00;99.90
31765;DHT22;18338;53.240;8.798;2023-11-21T00:28:05;10.10;99.90
31765;DHT22;18338;53.240;8.798;2023-11-21T00:30:32;10.10;99.90
31765;DHT22;18338;53.240;8.798;2023-11-21T00:32:59;10.10;99.90
31765;DHT22;18338;53.240;8.798;2023-11-21T00:35:26;10.10;99.90
31765;DHT22;18338;53.240;8.798;2023-11-21T00:37:53;10.10;99.90
31765;DHT22;18338;53.240;8.798;2023-11-21T00:40:20;10.10;99.90
31765;DHT22;18338;53.240;8.798;2023-11-21T00:42:48;10.10;99.90
31765;DHT22;18338;53.240;8.798;2023-11-21T00:45:14;10.10;99.90
31765;DHT22;18338;53.240;8.798;2023-11-21T00:47:41;10.10;99.90
31765;DHT22;18338;53.240;8.798;2023-11-21T00:50:09;10.10;99.90
31765;DHT22;18338;53.240;8.798;2023-11-21T00:52:36;10.10;99.90
31765;DHT22;18338;53.240;8.798;2023-11-21T00:55:04;10.20;99.90
31765;DHT22;18338;53.240;8.798;2023-11-21T00:57:32;10.10;99.90
31765;DHT22;18338;53.240;8.798;2023-11-21T00:59:58;10.20;99.90
31765;DHT22;18338;53.240;8.798;2023-11-21T01:02:25;10.20;99.90
31765;DHT22;18338;53.240;8.798;2023-11-21T01:04:52;10.20;99.90
31765;DHT22;18338;53.240;8.798;2023-11-21T01:07:19;10.20;99.90
31765;DHT22;18338;53.240;8.798;2023-11-21T01:09:49;10.30;99.90
31765;DHT22;18338;53.240;8.798;2023-11-21T01:12:16;10.20;99.90
31765;DHT22;18338;53.240;8.798;2023-11-21T01:14:44;10.30;99.90
31765;DHT22;18338;53.240;8.798;2023-11-21T01:17:11;10.30;99.90
31765;DHT22;18338;53.240;8.798;2023-11-21T01:19:38;10.30;99.90
31765;DHT22;18338;53.240;8.798;2023-11-21T01:22:05;10.30;99.90
31765;DHT22;18338;53.240;8.798;2023-11-21T01:24:32;10.30;99.90
31765;DHT22;18338;53.240;8.798;2023-11-21T01:26:59;10.30;99.90
31765;DHT22;18338;53.240;8.798;2023-11-21T01:29:25;10.30;99.90
31765;DHT22;18338;53.240;8.798;2023-11-21T01:31:52;10.40;99.90
31765;DHT22;18338;53.240;8.798;2023-11-21T01:34:19;10.40;99.90
31765;DHT22;18338;53.240;8.798;2023-11-21T01:36:46;10.40;99.90
31765;DHT22;18338;53.240;8.798;2023-11-21T01:39:13;10.40;99.90
31765;DHT22;18338;53.240;8.798;2023-11-21T01:41:42;10.40;99.90
31765;DHT22;18338;53.240;8.798;2023-11-21T01:44:10;10.40;99.90
31765;DHT22;18338;53.240;8.798;2023-11-21T01:46:38;10.40;99.90
31765;DHT22;18338;53.240;8.798;2023-11-21T01:49:05;10.40;99.90
31765;DHT22;18338;53.240;8.798;2023-11-21T01:51:32;10.40;99.90
31765;DHT22;18338;53.240;8.798;2023-11-21T01:53:59;10.40;99.90
31765;DHT22;18338;53.240;8.798;2023-11-21T01:56:26;10.40;99.90
31765;DHT22;18338;53.240;8.798;2023-11-21T01:58:53;10.40;99.90
31765;DHT22;18338;53.240;8.798;2023-11-21T02:01:20;10.40;99.90
31765;DHT22;18338;53.240;8.798;2023-11-21T02:03:47;10.40;99.90
31765;DHT22;18338;53.240;8.798;2023-11-21T02:06:14;10.40;99.90
31765;DHT22;18338;53.240;8.798;2023-11-21T02:08:41;10.30;99.90
31765;DHT22;18338;53.240;8.798;2023-11-21T02:11:10;10.30;99.90
31765;DHT22;18338;53.240;8.798;2023-11-21T02:13:39;10.30;99.90
31765;DHT22;18338;53.240;8.798;2023-11-21T02:16:10;10.30;99.90
31765;DHT22;18338;53.240;8.798;2023-11-21T02:18:39;10.20;99.90
31765;DHT22;18338;53.240;8.798;2023-11-21T02:21:06;10.30;99.90
31765;DHT22;18338;53.240;8.798;2023-11-21T02:23:34;10.20;99.90
31765;DHT22;18338;53.240;8.798;2023-11-21T02:26:01;10.20;99.90
31765;DHT22;18338;53.240;8.798;2023-11-21T02:28:30;10.20;99.90
31765;DHT22;18338;53.240;8.798;2023-11-21T02:30:57;10.20;99.90
31765;DHT22;18338;53.240;8.798;2023-11-21T02:33:25;10.20;99.90
31765;DHT22;18338;53.240;8.798;2023-11-21T02:35:52;10.20;99.90
31765;DHT22;18338;53.240;8.798;2023-11-21T02:38:21;10.10;99.90
31765;DHT22;18338;53.240;8.798;2023-11-21T02:40:48;10.10;99.90
31765;DHT22;18338;53.240;8.798;2023-11-21T02:43:16;10.10;99.90
31765;DHT22;18338;53.240;8.798;2023-11-21T02:45:42;10.10;99.90
31765;DHT22;18338;53.240;8.798;2023-11-21T02:48:09;10.10;99.90
31765;DHT22;18338;53.240;8.798;2023-11-21T02:50:36;10.10;99.90
31765;DHT22;18338;53.240;8.798;2023-11-21T02:53:04;10.00;99.90
31765;DHT22;18338;53.240;8.798;2023-11-21T02:55:32;10.00;99.90
31765;DHT22;18338;53.240;8.798;2023-11-21T02:58:02;10.00;99.90
31765;DHT22;18338;53.240;8.798;2023-11-21T03:00:30;10.00;99.90
31765;DHT22;18338;53.240;8.798;2023-11-21T03:02:57;9.90;99.90
31765;DHT22;18338;53.240;8.798;2023-11-21T03:05:24;9.90;99.90
31765;DHT22;18338;53.240;8.798;2023-11-21T03:07:51;9.90;99.90
31765;DHT22;18338;53.240;8.798;2023-11-21T03:10:18;9.90;99.90
31765;DHT22;18338;53.240;8.798;2023-11-21T03:12:46;9.80;99.90
31765;DHT22;18338;53.240;8.798;2023-11-21T03:15:12;9.80;99.90
31765;DHT22;18338;53.240;8.798;2023-11-21T03:17:40;9.80;99.90
31765;DHT22;18338;53.240;8.798;2023-11-21T03:20:07;9.80;99.90
31765;DHT22;18338;53.240;8.798;2023-11-21T03:22:38;9.70;99.90
31765;DHT22;18338;53.240;8.798;2023-11-21T03:25:06;9.70;99.90
31765;DHT22;18338;53.240;8.798;2023-11-21T03:27:33;9.70;99.90
31765;DHT22;18338;53.240;8.798;2023-11-21T03:29:59;9.70;99.90
31765;DHT22;18338;53.240;8.798;2023-11-21T03:32:26;9.70;99.90
31765;DHT22;18338;53.240;8.798;2023-11-21T03:34:55;9.70;99.90
31765;DHT22;18338;53.240;8.798;2023-11-21T03:37:23;9.60;99.90
31765;DHT22;18338;53.240;8.798;2023-11-21T03:39:51;9.60;99.90
31765;DHT22;18338;53.240;8.798;2023-11-21T03:42:18;9.70;99.90
31765;DHT22;18338;53.240;8.798;2023-11-21T03:44:44;9.70;99.90
31765;DHT22;18338;53.240;8.798;2023-11-21T03:47:11;9.60;99.90
31765;DHT22;18338;53.240;8.798;2023-11-21T03:49:38;9.60;99.90
31765;DHT22;18338;53.240;8.798;2023-11-21T03:52:05;9.50;99.90
31765;DHT22;18338;53.240;8.798;2023-11-21T03:54:34;9.50;99.90
31765;DHT22;18338;53.240;8.798;2023-11-21T03:57:00;9.50;99.90
31765;DHT22;18338;53.240;8.798;2023-11-21T03:59:27;9.50;99.90
31765;DHT22;18338;53.240;8.798;2023-11-21T04:01:56;9.50;99.90
31765;DHT22;18338;53.240;8.798;2023-11-21T04:04:23;9.50;99.90
31765;DHT22;18338;53.240;8.798;2023-11-21T04:06:50;9.50;99.90
31765;DHT22;18338;53.240;8.798;2023-11-21T04:09:18;9.50;99.90
31765;DHT22;18338;53.240;8.798;2023-11-21T04:11:45;9.40;99.90
31765;DHT22;18338;53.240;8.798;2023-11-21T04:14:13;9.40;99.90
31765;DHT22;18338;53.240;8.798;2023-11-21T04:16:40;9.40;99.90
31765;DHT22;18338;53.240;8.798;2023-11-21T04:19:07;9.30;99.90
31765;DHT22;18338;53.240;8.798;2023-11-21T04:21:37;9.30;99.90
31765;DHT22;18338;53.240;8.798;2023-11-21T04:24:05;9.30;99.90
31765;DHT22;18338;53.240;8.798;2023-11-21T04:26:32;9.20;99.90
31765;DHT22;18338;53.240;8.798;2023-11-21T04:28:59;9.20;99.90
31765;DHT22;18338;53.240;8.798;2023-11-21T04:31:26;9.20;99.90
31765;DHT22;18338;53.240;8.798;2023-11-21T04:33:53;9.10;99.90
31765;DHT22;18338;53.240;8.798;2023-11-21T04:36:19;9.10;99.90
31765;DHT22;18338;53.240;8.798;2023-11-21T04:38:46;9.10;99.90
31765;DHT22;18338;53.240;8.798;2023-11-21T04:41:13;9.10;99.90
31765;DHT22;18338;53.240;8.798;2023-11-21T04:43:40;9.00;99.90
31765;DHT22;18338;53.240;8.798;2023-11-21T04:46:06;9.00;99.90
31765;DHT22;18338;53.240;8.798;2023-11-21T04:48:33;9.00;99.90
31765;DHT22;18338;53.240;8.798;2023-11-21T04:51:00;8.90;99.90
31765;DHT22;18338;53.240;8.798;2023-11-21T04:53:27;8.90;99.90
31765;DHT22;18338;53.240;8.798;2023-11-21T04:55:54;8.90;99.90
31765;DHT22;18338;53.240;8.798;2023-11-21T04:58:21;8.90;99.90
31765;DHT22;18338;53.240;8.798;2023-11-21T05:00:48;8.80;99.90
31765;DHT22;18338;53.240;8.798;2023-11-21T05:03:14;8.80;99.90
31765;DHT22;18338;53.240;8.798;2023-11-21T05:05:41;8.80;99.90
31765;DHT22;18338;53.240;8.798;2023-11-21T05:08:08;8.70;99.90
31765;DHT22;18338;53.240;8.798;2023-11-21T05:10:35;8.70;99.90
31765;DHT22;18338;53.240;8.798;2023-11-21T05:13:04;8.70;99.90
31765;DHT22;18338;53.240;8.798;2023-11-21T05:15:36;8.60;99.90
31765;DHT22;18338;53.240;8.798;2023-11-21T05:18:04;8.60;99.90
31765;DHT22;18338;53.240;8.798;2023-11-21T05:20:32;8.60;99.90
31765;DHT22;18338;53.240;8.798;2023-11-21T05:22:59;8.60;99.90
31765;DHT22;18338;53.240;8.798;2023-11-21T05:25:26;8.60;99.90
31765;DHT22;18338;53.240;8.798;2023-11-21T05:27:53;8.50;99.90
31765;DHT22;18338;53.240;8.798;2023-11-21T05:30:21;8.50;99.90
31765;DHT22;18338;53.240;8.798;2023-11-21T05:32:49;8.50;99.90
31765;DHT22;18338;53.240;8.798;2023-11-21T05:35:16;8.40;99.90
31765;DHT22;18338;53.240;8.798;2023-11-21T05:37:44;8.40;99.90
31765;DHT22;18338;53.240;8.798;2023-11-21T05:40:12;8.40;99.90
31765;DHT22;18338;53.240;8.798;2023-11-21T05:42:40;8.30;99.90
31765;DHT22;18338;53.240;8.798;2023-11-21T05:45:08;8.30;99.90
31765;DHT22;18338;53.240;8.798;2023-11-21T05:47:37;8.20;99.90
31765;DHT22;18338;53.240;8.798;2023-11-21T05:50:06;8.20;99.90
31765;DHT22;18338;53.240;8.798;2023-11-21T05:52:33;8.10;99.90
31765;DHT22;18338;53.240;8.798;2023-11-21T05:55:00;8.10;99.90
31765;DHT22;18338;53.240;8.798;2023-11-21T05:57:27;8.00;99.90
31765;DHT22;18338;53.240;8.798;2023-11-21T05:59:53;8.00;99.90
31765;DHT22;18338;53.240;8.798;2023-11-21T06:02:20;8.00;99.90
31765;DHT22;18338;53.240;8.798;2023-11-21T06:04:48;8.00;99.90
31765;DHT22;18338;53.240;8.798;2023-11-21T06:07:15;8.00;99.90
31765;DHT22;18338;53.240;8.798;2023-11-21T06:09:45;8.00;99.90
31765;DHT22;18338;53.240;8.798;2023-11-21T06:12:12;8.00;99.90
31765;DHT22;18338;53.240;8.798;2023-11-21T06:14:39;7.90;99.90
31765;DHT22;18338;53.240;8.798;2023-11-21T06:17:05;7.90;99.90
31765;DHT22;18338;53.240;8.798;2023-11-21T06:19:32;7.90;99.90
31765;DHT22;18338;53.240;8.798;2023-11-21T06:21:59;7.90;99.90
31765;DHT22;18338;53.240;8.798;2023-11-21T06:24:27;7.90;99.90
31765;DHT22;18338;53.240;8.798;2023-11-21T06:26:54;7.80;99.90
31765;DHT22;18338;53.240;8.798;2023-11-21T06:29:21;7.80;99.90
31765;DHT22;18338;53.240;8.798;2023-11-21T06:31:49;7.70;99.90
31765;DHT22;18338;53.240;8.798;2023-11-21T06:34:16;7.70;99.90
31765;DHT22;18338;53.240;8.798;2023-11-21T06:36:43;7.70;99.90
31765;DHT22;18338;53.240;8.798;2023-11-21T06:39:09;7.60;99.90
31765;DHT22;18338;53.240;8.798;2023-11-21T06:41:37;7.60;99.90
31765;DHT22;18338;53.240;8.798;2023-11-21T06:44:05;7.60;99.90
31765;DHT22;18338;53.240;8.798;2023-11-21T06:46:32;7.50;99.90
31765;DHT22;18338;53.240;8.798;2023-11-21T06:48:59;7.50;99.90
31765;DHT22;18338;53.240;8.798;2023-11-21T06:51:26;7.50;99.90
31765;DHT22;18338;53.240;8.798;2023-11-21T06:53:53;7.50;99.90
31765;DHT22;18338;53.240;8.798;2023-11-21T06:56:20;7.40;99.90
31765;DHT22;18338;53.240;8.798;2023-11-21T06:58:47;7.40;99.90
31765;DHT22;18338;53.240;8.798;2023-11-21T07:01:15;7.40;99.90
31765;DHT22;18338;53.240;8.798;2023-11-21T07:03:42;7.30;99.90
31765;DHT22;18338;53.240;8.798;2023-11-21T07:06:09;7.30;99.90
31765;DHT22;18338;53.240;8.798;2023-11-21T07:08:36;7.30;99.90
31765;DHT22;18338;53.240;8.798;2023-11-21T07:11:04;7.30;99.90
31765;DHT22;18338;53.240;8.798;2023-11-21T07:13:31;7.30;99.90
31765;DHT22;18338;53.240;8.798;2023-11-21T07:15:58;7.30;99.90
31765;DHT22;18338;53.240;8.798;2023-11-21T07:18:25;7.30;99.90
31765;DHT22;18338;53.240;8.798;2023-11-21T07:20:52;7.30;99.90
31765;DHT22;18338;53.240;8.798;2023-11-21T07:23:19;7.30;99.90
31765;DHT22;18338;53.240;8.798;2023-11-21T07:25:46;7.40;99.90
31765;DHT22;18338;53.240;8.798;2023-11-21T07:28:13;7.40;99.90
31765;DHT22;18338;53.240;8.798;2023-11-21T07:30:40;7.40;99.90
31765;DHT22;18338;53.240;8.798;2023-11-21T07:33:07;7.50;99.90
31765;DHT22;18338;53.240;8.798;2023-11-21T07:35:33;7.50;99.90
31765;DHT22;18338;53.240;8.798;2023-11-21T07:38:00;7.60;99.90
31765;DHT22;18338;53.240;8.798;2023-11-21T07:40:27;7.60;99.90
31765;DHT22;18338;53.240;8.798;2023-11-21T07:42:54;7.60;99.90
31765;DHT22;18338;53.240;8.798;2023-11-21T07:45:23;7.70;99.90
31765;DHT22;18338;53.240;8.798;2023-11-21T07:47:50;7.70;99.90
31765;DHT22;18338;53.240;8.798;2023-11-21T07:50:17;7.70;99.90
31765;DHT22;18338;53.240;8.798;2023-11-21T07:52:44;7.70;99.90
31765;DHT22;18338;53.240;8.798;2023-11-21T07:55:11;7.80;99.90
31765;DHT22;18338;53.240;8.798;2023-11-21T07:57:38;7.80;99.90
31765;DHT22;18338;53.240;8.798;2023-11-21T08:00:06;7.80;99.90
31765;DHT22;18338;53.240;8.798;2023-11-21T08:02:36;7.80;99.90
31765;DHT22;18338;53.240;8.798;2023-11-21T08:05:03;7.90;99.90
31765;DHT22;18338;53.240;8.798;2023-11-21T08:07:30;7.90;99.90
31765;DHT22;18338;53.240;8.798;2023-11-21T08:09:57;8.00;99.90
31765;DHT22;18338;53.240;8.798;2023-11-21T08:12:25;8.00;99.90
31765;DHT22;18338;53.240;8.798;2023-11-21T08:14:54;8.00;99.90
31765;DHT22;18338;53.240;8.798;2023-11-21T08:17:21;8.00;99.90
31765;DHT22;18338;53.240;8.798;2023-11-21T08:19:48;8.00;99.90
31765;DHT22;18338;53.240;8.798;2023-11-21T08:22:16;8.00;99.90
31765;DHT22;18338;53.240;8.798;2023-11-21T08:24:44;8.00;99.90
31765;DHT22;18338;53.240;8.798;2023-11-21T08:27:13;8.10;99.90
31765;DHT22;18338;53.240;8.798;2023-11-21T08:29:43;8.10;99.90
31765;DHT22;18338;53.240;8.798;2023-11-21T08:32:09;8.20;99.90
31765;DHT22;18338;53.240;8.798;2023-11-21T08:34:36;8.20;99.90
31765;DHT22;18338;53.240;8.798;2023-11-21T08:37:03;8.30;99.90
31765;DHT22;18338;53.240;8.798;2023-11-21T08:39:30;8.30;99.90
31765;DHT22;18338;53.240;8.798;2023-11-21T08:41:57;8.30;99.90
31765;DHT22;18338;53.240;8.798;2023-11-21T08:44:24;8.30;99.90
31765;DHT22;18338;53.240;8.798;2023-11-21T08:46:51;8.30;99.90
31765;DHT22;18338;53.240;8.798;2023-11-21T08:49:18;8.30;99.90
31765;DHT22;18338;53.240;8.798;2023-11-21T08:51:45;8.50;99.90
31765;DHT22;18338;53.240;8.798;2023-11-21T08:54:12;8.70;99.90
31765;DHT22;18338;53.240;8.798;2023-11-21T08:56:39;8.60;99.90
31765;DHT22;18338;53.240;8.798;2023-11-21T08:59:06;8.70;99.90
31765;DHT22;18338;53.240;8.798;2023-11-21T09:01:34;8.90;99.90
31765;DHT22;18338;53.240;8.798;2023-11-21T09:04:01;8.90;99.90
31765;DHT22;18338;53.240;8.798;2023-11-21T09:06:29;9.10;99.90
31765;DHT22;18338;53.240;8.798;2023-11-21T09:08:55;9.10;99.90
31765;DHT22;18338;53.240;8.798;2023-11-21T09:11:22;9.10;99.90
31765;DHT22;18338;53.240;8.798;2023-11-21T09:13:50;9.10;99.90
31765;DHT22;18338;53.240;8.798;2023-11-21T09:16:17;9.10;99.90
31765;DHT22;18338;53.240;8.798;2023-11-21T09:18:45;9.00;99.90
31765;DHT22;18338;53.240;8.798;2023-11-21T09:21:11;9.00;99.90
31765;DHT22;18338;53.240;8.798;2023-11-21T09:23:38;8.80;99.90
31765;DHT22;18338;53.240;8.798;2023-11-21T09:26:05;8.80;99.90
31765;DHT22;18338;53.240;8.798;2023-11-21T09:28:32;8.70;99.90
31765;DHT22;18338;53.240;8.798;2023-11-21T09:30:59;8.70;99.90
31765;DHT22;18338;53.240;8.798;2023-11-21T09:33:25;8.70;99.90
31765;DHT22;18338;53.240;8.798;2023-11-21T09:35:52;8.70;99.90
31765;DHT22;18338;53.240;8.798;2023-11-21T09:38:19;8.80;99.90
31765;DHT22;18338;53.240;8.798;2023-11-21T09:40:46;8.90;99.90
31765;DHT22;18338;53.240;8.798;2023-11-21T09:43:16;8.90;99.90
31765;DHT22;18338;53.240;8.798;2023-11-21T09:45:52;9.10;99.90
31765;DHT22;18338;53.240;8.798;2023-11-21T09:48:21;9.30;99.90
31765;DHT22;18338;53.240;8.798;2023-11-21T09:50:50;9.40;99.90
31765;DHT22;18338;53.240;8.798;2023-11-21T09:53:22;9.50;99.90
31765;DHT22;18338;53.240;8.798;2023-11-21T09:55:52;9.60;99.90
31765;DHT22;18338;53.240;8.798;2023-11-21T09:58:20;9.60;99.90
31765;DHT22;18338;53.240;8.798;2023-11-21T10:00:50;9.60;99.90
31765;DHT22;18338;53.240;8.798;2023-11-21T10:03:19;9.50;99.90
31765;DHT22;18338;53.240;8.798;2023-11-21T10:05:49;9.40;99.90
31765;DHT22;18338;53.240;8.798;2023-11-21T10:08:17;9.40;99.90
31765;DHT22;18338;53.240;8.798;2023-11-21T10:10:49;9.50;99.90
31765;DHT22;18338;53.240;8.798;2023-11-21T10:13:18;9.50;99.90
31765;DHT22;18338;53.240;8.798;2023-11-21T10:15:50;9.70;99.90
31765;DHT22;18338;53.240;8.798;2023-11-21T10:18:18;9.90;99.90
31765;DHT22;18338;53.240;8.798;2023-11-21T10:20:45;10.20;99.90
31765;DHT22;18338;53.240;8.798;2023-11-21T10:23:20;10.30;99.90
31765;DHT22;18338;53.240;8.798;2023-11-21T10:25:50;10.40;99.90
31765;DHT22;18338;53.240;8.798;2023-11-21T10:28:18;10.30;99.90
31765;DHT22;18338;53.240;8.798;2023-11-21T10:30:47;10.20;99.90
31765;DHT22;18338;53.240;8.798;2023-11-21T10:33:14;10.10;99.90
31765;DHT22;18338;53.240;8.798;2023-11-21T10:35:44;10.10;99.90
31765;DHT22;18338;53.240;8.798;2023-11-21T10:38:14;10.00;99.90
31765;DHT22;18338;53.240;8.798;2023-11-21T10:40:41;9.90;99.90
31765;DHT22;18338;53.240;8.798;2023-11-21T10:43:09;9.70;99.90
31765;DHT22;18338;53.240;8.798;2023-11-21T10:45:40;9.80;99.90
31765;DHT22;18338;53.240;8.798;2023-11-21T10:48:07;9.80;99.90
31765;DHT22;18338;53.240;8.798;2023-11-21T10:50:35;9.90;99.90
31765;DHT22;18338;53.240;8.798;2023-11-21T10:53:05;9.90;99.90
31765;DHT22;18338;53.240;8.798;2023-11-21T10:55:33;10.00;99.90
31765;DHT22;18338;53.240;8.798;2023-11-21T10:58:02;9.90;99.90
31765;DHT22;18338;53.240;8.798;2023-11-21T11:00:32;9.90;99.90
31765;DHT22;18338;53.240;8.798;2023-11-21T11:03:00;9.80;99.90
31765;DHT22;18338;53.240;8.798;2023-11-21T11:05:28;9.70;99.90
31765;DHT22;18338;53.240;8.798;2023-11-21T11:08:15;9.60;99.90
31765;DHT22;18338;53.240;8.798;2023-11-21T11:10:45;9.50;99.90
31765;DHT22;18338;53.240;8.798;2023-11-21T11:13:14;9.50;99.90
31765;DHT22;18338;53.240;8.798;2023-11-21T11:15:42;9.40;99.90
31765;DHT22;18338;53.240;8.798;2023-11-21T11:18:11;9.30;99.90
31765;DHT22;18338;53.240;8.798;2023-11-21T11:20:39;9.30;99.90
31765;DHT22;18338;53.240;8.798;2023-11-21T11:33:57;9.40;99.90
31765;DHT22;18338;53.240;8.798;2023-11-21T11:36:34;9.40;99.90
31765;DHT22;18338;53.240;8.798;2023-11-21T11:39:26;9.30;99.90
31765;DHT22;18338;53.240;8.798;2023-11-21T11:41:53;9.40;99.90
31765;DHT22;18338;53.240;8.798;2023-11-21T11:47:16;9.50;99.90
31765;DHT22;18338;53.240;8.798;2023-11-21T11:52:46;9.80;99.90
31765;DHT22;18338;53.240;8.798;2023-11-21T11:55:15;10.20;99.90
31765;DHT22;18338;53.240;8.798;2023-11-21T11:57:47;10.70;99.90
31765;DHT22;18338;53.240;8.798;2023-11-21T12:00:16;10.90;99.90
31765;DHT22;18338;53.240;8.798;2023-11-21T12:02:51;10.60;99.90
31765;DHT22;18338;53.240;8.798;2023-11-21T12:05:22;10.50;99.90
31765;DHT22;18338;53.240;8.798;2023-11-21T12:07:50;10.70;99.90
31765;DHT22;18338;53.240;8.798;2023-11-21T12:10:46;10.90;99.90
31765;DHT22;18338;53.240;8.798;2023-11-21T12:13:15;10.50;99.90
31765;DHT22;18338;53.240;8.798;2023-11-21T12:15:42;10.30;99.90
31765;DHT22;18338;53.240;8.798;2023-11-21T12:18:09;10.00;99.90
31765;DHT22;18338;53.240;8.798;2023-11-21T12:20:36;9.80;99.90
31765;DHT22;18338;53.240;8.798;2023-11-21T12:23:06;9.50;99.90
31765;DHT22;18338;53.240;8.798;2023-11-21T12:25:33;9.30;99.90
31765;DHT22;18338;53.240;8.798;2023-11-21T12:28:01;9.20;99.90
31765;DHT22;18338;53.240;8.798;2023-11-21T12:30:31;9.10;99.90
31765;DHT22;18338;53.240;8.798;2023-11-21T12:32:59;9.00;99.90
31765;DHT22;18338;53.240;8.798;2023-11-21T12:35:29;8.90;99.90
31765;DHT22;18338;53.240;8.798;2023-11-21T12:37:57;9.00;99.90
31765;DHT22;18338;53.240;8.798;2023-11-21T12:40:24;9.00;99.90
31765;DHT22;18338;53.240;8.798;2023-11-21T12:42:54;9.00;99.90
31765;DHT22;18338;53.240;8.798;2023-11-21T12:45:25;9.10;99.90
31765;DHT22;18338;53.240;8.798;2023-11-21T12:48:00;9.00;99.90
31765;DHT22;18338;53.240;8.798;2023-11-21T12:50:28;9.10;99.90
31765;DHT22;18338;53.240;8.798;2023-11-21T12:53:00;9.10;99.90
31765;DHT22;18338;53.240;8.798;2023-11-21T12:55:33;9.20;99.90
31765;DHT22;18338;53.240;8.798;2023-11-21T12:58:08;9.20;99.90
31765;DHT22;18338;53.240;8.798;2023-11-21T13:00:45;9.30;99.90
31765;DHT22;18338;53.240;8.798;2023-11-21T13:03:14;9.40;99.90
31765;DHT22;18338;53.240;8.798;2023-11-21T13:05:48;9.40;99.90
31765;DHT22;18338;53.240;8.798;2023-11-21T13:08:21;9.30;99.90
31765;DHT22;18338;53.240;8.798;2023-11-21T13:10:54;8.90;99.90
31765;DHT22;18338;53.240;8.798;2023-11-21T13:13:23;8.70;99.90
31765;DHT22;18338;53.240;8.798;2023-11-21T13:15:56;8.50;99.90
31765;DHT22;18338;53.240;8.798;2023-11-21T13:18:27;8.20;99.90
31765;DHT22;18338;53.240;8.798;2023-11-21T13:20:56;8.00;99.90
31765;DHT22;18338;53.240;8.798;2023-11-21T13:23:23;7.90;99.90
31765;DHT22;18338;53.240;8.798;2023-11-21T13:25:51;7.80;99.90
31765;DHT22;18338;53.240;8.798;2023-11-21T13:28:28;7.60;99.90
31765;DHT22;18338;53.240;8.798;2023-11-21T13:31:00;7.60;99.90
31765;DHT22;18338;53.240;8.798;2023-11-21T13:33:37;7.60;99.90
31765;DHT22;18338;53.240;8.798;2023-11-21T13:36:09;7.60;99.90
31765;DHT22;18338;53.240;8.798;2023-11-21T13:38:37;7.70;99.90
31765;DHT22;18338;53.240;8.798;2023-11-21T13:41:08;7.70;99.90
31765;DHT22;18338;53.240;8.798;2023-11-21T13:43:37;7.70;99.90
31765;DHT22;18338;53.240;8.798;2023-11-21T13:46:05;7.80;99.90
31765;DHT22;18338;53.240;8.798;2023-11-21T13:48:40;7.70;99.90
31765;DHT22;18338;53.240;8.798;2023-11-21T13:51:17;7.80;99.90
31765;DHT22;18338;53.240;8.798;2023-11-21T13:53:44;7.80;99.90
31765;DHT22;18338;53.240;8.798;2023-11-21T13:56:14;7.80;99.90
31765;DHT22;18338;53.240;8.798;2023-11-21T13:58:46;7.90;99.90
31765;DHT22;18338;53.240;8.798;2023-11-21T14:01:24;7.90;99.90
31765;DHT22;18338;53.240;8.798;2023-11-21T14:03:58;8.00;99.90
31765;DHT22;18338;53.240;8.798;2023-11-21T14:06:50;8.00;99.90
31765;DHT22;18338;53.240;8.798;2023-11-21T14:09:20;7.90;99.90
31765;DHT22;18338;53.240;8.798;2023-11-21T14:11:54;7.90;99.90
31765;DHT22;18338;53.240;8.798;2023-11-21T14:14:24;7.90;99.90
31765;DHT22;18338;53.240;8.798;2023-11-21T14:16:52;7.90;99.90
31765;DHT22;18338;53.240;8.798;2023-11-21T14:19:19;7.90;99.90
31765;DHT22;18338;53.240;8.798;2023-11-21T14:21:47;7.90;99.90
31765;DHT22;18338;53.240;8.798;2023-11-21T14:24:15;7.80;99.90
31765;DHT22;18338;53.240;8.798;2023-11-21T14:26:45;7.80;99.90
31765;DHT22;18338;53.240;8.798;2023-11-21T14:29:13;7.70;99.90
31765;DHT22;18338;53.240;8.798;2023-11-21T14:31:47;7.70;99.90
31765;DHT22;18338;53.240;8.798;2023-11-21T14:34:14;7.60;99.90
31765;DHT22;18338;53.240;8.798;2023-11-21T14:36:46;7.40;99.90
31765;DHT22;18338;53.240;8.798;2023-11-21T14:39:12;7.30;99.90
31765;DHT22;18338;53.240;8.798;2023-11-21T14:41:55;7.10;99.90
31765;DHT22;18338;53.240;8.798;2023-11-21T14:44:27;7.00;99.90
31765;DHT22;18338;53.240;8.798;2023-11-21T14:46:59;7.00;99.90
31765;DHT22;18338;53.240;8.798;2023-11-21T14:49:27;7.00;99.90
31765;DHT22;18338;53.240;8.798;2023-11-21T14:52:02;6.90;99.90
31765;DHT22;18338;53.240;8.798;2023-11-21T14:54:47;6.90;99.90
31765;DHT22;18338;53.240;8.798;2023-11-21T14:57:23;6.90;99.90
31765;DHT22;18338;53.240;8.798;2023-11-21T14:59:50;6.90;99.90
31765;DHT22;18338;53.240;8.798;2023-11-21T15:02:19;6.80;99.90
31765;DHT22;18338;53.240;8.798;2023-11-21T15:05:10;6.80;99.90
31765;DHT22;18338;53.240;8.798;2023-11-21T15:07:41;6.80;99.90
31765;DHT22;18338;53.240;8.798;2023-11-21T15:10:08;6.80;99.90
31765;DHT22;18338;53.240;8.798;2023-11-21T15:12:41;6.70;99.90
31765;DHT22;18338;53.240;8.798;2023-11-21T15:15:10;6.70;99.90
31765;DHT22;18338;53.240;8.798;2023-11-21T15:17:37;6.60;99.90
31765;DHT22;18338;53.240;8.798;2023-11-21T15:20:06;6.60;99.90
31765;DHT22;18338;53.240;8.798;2023-11-21T15:22:35;6.60;99.90
31765;DHT22;18338;53.240;8.798;2023-11-21T15:25:02;6.60;99.90
31765;DHT22;18338;53.240;8.798;2023-11-21T15:27:36;6.60;99.90
31765;DHT22;18338;53.240;8.798;2023-11-21T15:30:03;6.60;99.90
31765;DHT22;18338;53.240;8.798;2023-11-21T15:32:30;6.60;99.90
31765;DHT22;18338;53.240;8.798;2023-11-21T15:34:56;6.60;99.90
31765;DHT22;18338;53.240;8.798;2023-11-21T15:37:23;6.60;99.90
31765;DHT22;18338;53.240;8.798;2023-11-21T15:39:52;6.60;99.90
31765;DHT22;18338;53.240;8.798;2023-11-21T15:42:19;6.70;99.90
31765;DHT22;18338;53.240;8.798;2023-11-21T15:44:46;6.60;99.90
31765;DHT22;18338;53.240;8.798;2023-11-21T15:47:13;6.60;99.90
31765;DHT22;18338;53.240;8.798;2023-11-21T15:49:40;6.60;99.90
31765;DHT22;18338;53.240;8.798;2023-11-21T15:52:07;6.60;99.90
31765;DHT22;18338;53.240;8.798;2023-11-21T15:54:38;6.60;99.90
31765;DHT22;18338;53.240;8.798;2023-11-21T15:57:05;6.50;99.90
31765;DHT22;18338;53.240;8.798;2023-11-21T15:59:32;6.60;99.90
31765;DHT22;18338;53.240;8.798;2023-11-21T16:02:00;6.60;99.90
31765;DHT22;18338;53.240;8.798;2023-11-21T16:04:27;6.50;99.90
31765;DHT22;18338;53.240;8.798;2023-11-21T16:06:54;6.50;99.90